Calling Lake, Canada
Current Conditions -  °F | °C
As of 1:00 AM on Saturday 29 Nov 2014 (Local Time) from CYZH Reporting Station
Clear Clear  
Wind Chill: -38°   Ceiling: Unl
Heat Index: -15°   Visibility: 9mi
Dew Point: -20°   Wind: 14mph
Humidity: 77%   Direction: 290°WNW
Pressure: 29.95"   Gusts: NA
Location:  55.25°N, 113.2°W
Report Text: CYZH 290800Z AUTO 29012KT 9SM CLR M26/M29 A2995 RMK SLP209
Loading
Personal Weather Stations






























Interactive Weather Map New forecast layout! Learn more

10-Day Weather Forecast

Advertisements
Track Severe Weather on mobile